createdAt,value
2019-06-01T00:01:44.815Z,97462.79
2019-06-01T00:04:13.076Z,97462.98
2019-06-01T00:06:42.702Z,97461.55
2019-06-01T00:09:11.135Z,97455.06
2019-06-01T00:11:39.461Z,97456.55
2019-06-01T00:14:07.831Z,97455.52
2019-06-01T00:16:36.141Z,97457.66
2019-06-01T00:19:04.436Z,97457.32
2019-06-01T00:21:32.718Z,97456.91
2019-06-01T00:24:01.025Z,97456.52
2019-06-01T00:26:29.337Z,97448.78
2019-06-01T00:28:57.638Z,97452.96
2019-06-01T00:31:25.950Z,97453.64
2019-06-01T00:33:54.242Z,97449.91
2019-06-01T00:36:22.574Z,97443.25
2019-06-01T00:38:52.013Z,97442.39
2019-06-01T00:41:21.287Z,97436.66
2019-06-01T00:43:50.464Z,97439.30
2019-06-01T00:46:18.929Z,97440.35
2019-06-01T00:48:47.874Z,97443.13
2019-06-01T00:51:16.148Z,97438.20
2019-06-01T00:53:45.365Z,97383.75
2019-06-01T00:56:13.746Z,97435.27
2019-06-01T00:58:43.543Z,97431.02
2019-06-01T01:01:12.836Z,97435.56
2019-06-01T01:03:41.152Z,97429.83
2019-06-01T01:06:09.517Z,97432.55
2019-06-01T01:08:37.899Z,97430.77
2019-06-01T01:11:06.182Z,97432.59
2019-06-01T01:13:34.570Z,97428.65
2019-06-01T01:16:02.863Z,97428.77
2019-06-01T01:18:31.858Z,97424.36
2019-06-01T01:21:00.191Z,97427.92
2019-06-01T01:23:28.516Z,97431.27
2019-06-01T01:25:56.842Z,97435.47
2019-06-01T01:28:25.133Z,97439.06
2019-06-01T01:31:08.350Z,97433.41
2019-06-01T01:33:23.467Z,97426.48
2019-06-01T01:35:52.598Z,97429.20
2019-06-01T01:38:21.848Z,97424.19
2019-06-01T01:40:50.221Z,97427.05
2019-06-01T01:43:18.567Z,97425.52
2019-06-01T01:45:46.855Z,97428.61
2019-06-01T01:48:15.209Z,97430.23
2019-06-01T01:50:43.457Z,97426.33
2019-06-01T01:53:11.837Z,97420.67
2019-06-01T01:55:40.155Z,97426.28
2019-06-01T01:58:08.540Z,97424.11
2019-06-01T02:00:39.404Z,97418.43
2019-06-01T02:03:08.140Z,97424.27
2019-06-01T02:05:36.582Z,97424.70
2019-06-01T02:08:05.940Z,97428.22
2019-06-01T02:10:34.387Z,97420.60
2019-06-01T02:13:02.781Z,97417.47
2019-06-01T02:15:31.159Z,97417.89
2019-06-01T02:18:00.589Z,97422.27
2019-06-01T02:20:29.114Z,97418.83
2019-06-01T02:22:58.829Z,97413.22
2019-06-01T02:25:27.454Z,97412.98
2019-06-01T02:27:57.200Z,97420.21
2019-06-01T02:30:25.773Z,97414.88
2019-06-01T02:32:56.007Z,97422.38
2019-06-01T02:35:24.178Z,97416.19
2019-06-01T02:37:54.493Z,97413.98
2019-06-01T02:40:24.245Z,97420.59
2019-06-01T02:42:52.630Z,97417.97
2019-06-01T02:45:21.157Z,97412.86
2019-06-01T02:47:49.449Z,97418.46
2019-06-01T02:50:17.856Z,97413.93
2019-06-01T02:52:46.198Z,97414.55
2019-06-01T02:55:17.379Z,97416.20
2019-06-01T02:57:45.899Z,97420.66
2019-06-01T03:00:16.930Z,97413.73
2019-06-01T03:02:45.880Z,97414.05
2019-06-01T03:05:14.547Z,97412.69
2019-06-01T03:07:43.996Z,97413.55
2019-06-01T03:10:12.900Z,97411.98
2019-06-01T03:12:43.635Z,97418.98
2019-06-01T03:15:12.506Z,97419.28
2019-06-01T03:17:43.985Z,97422.27
2019-06-01T03:20:14.204Z,97421.16
2019-06-01T03:22:43.272Z,97422.66
2019-06-01T03:25:12.347Z,97422.80
2019-06-01T03:27:42.390Z,97413.61
2019-06-01T03:30:15.288Z,97415.27
2019-06-01T03:32:42.225Z,97410.44
2019-06-01T03:35:10.547Z,97415.55
2019-06-01T03:37:38.915Z,97407.20
2019-06-01T03:40:15.776Z,97412.89
2019-06-01T03:42:38.289Z,97408.95
2019-06-01T03:45:07.647Z,97411.11
2019-06-01T03:47:36.111Z,97410.97
2019-06-01T03:50:06.915Z,97409.16
2019-06-01T03:52:35.375Z,97405.17
2019-06-01T03:55:05.856Z,97409.01
2019-06-01T03:57:34.410Z,97406.34
2019-06-01T04:00:03.348Z,97411.48
2019-06-01T04:02:33.424Z,97416.75
2019-06-01T04:05:03.542Z,97413.62
2019-06-01T04:07:32.083Z,97408.28
2019-06-01T04:10:01.635Z,97411.41
2019-06-01T04:12:30.304Z,97415.89
2019-06-01T04:14:58.632Z,97413.58
2019-06-01T04:17:27.009Z,97417.23
2019-06-01T04:19:55.299Z,97404.77
2019-06-01T04:22:23.740Z,97409.31
2019-06-01T04:24:52.026Z,97404.36
2019-06-01T04:27:20.390Z,97407.72
2019-06-01T04:29:48.933Z,97412.32
2019-06-01T04:32:17.519Z,97410.03
2019-06-01T04:34:45.927Z,97411.04
2019-06-01T04:37:14.211Z,97411.61
2019-06-01T04:39:42.549Z,97407.38
2019-06-01T04:42:11.873Z,97412.36
2019-06-01T04:44:40.237Z,97409.95
2019-06-01T04:47:09.269Z,97399.97
2019-06-01T04:49:38.778Z,97407.87
2019-06-01T04:52:07.078Z,97412.75
2019-06-01T04:54:35.385Z,97409.34
2019-06-01T04:57:04.767Z,97410.66
2019-06-01T04:59:33.111Z,97412.04
2019-06-01T05:02:01.439Z,97412.44
2019-06-01T05:04:29.743Z,97415.57
2019-06-01T05:06:58.057Z,97413.88
2019-06-01T05:09:26.375Z,97408.63
2019-06-01T05:11:54.713Z,97368.36
2019-06-01T05:14:23.021Z,97410.83
2019-06-01T05:16:51.359Z,97416.86
2019-06-01T05:19:19.986Z,97412.41
2019-06-01T05:21:48.291Z,97414.64
2019-06-01T05:24:17.286Z,97413.81
2019-06-01T05:26:45.707Z,97407.56
2019-06-01T05:29:14.008Z,97401.73
2019-06-01T05:31:42.430Z,97402.00
2019-06-01T05:34:11.819Z,97403.33
2019-06-01T05:36:40.277Z,97409.73
2019-06-01T05:39:08.651Z,97407.61
2019-06-01T05:41:36.989Z,97418.80
2019-06-01T05:44:05.363Z,97408.13
2019-06-01T05:46:33.736Z,97412.61
2019-06-01T05:49:02.148Z,97409.30
2019-06-01T05:51:30.538Z,97414.63
2019-06-01T05:53:58.902Z,97410.39
2019-06-01T05:56:27.289Z,97406.98
2019-06-01T05:58:55.592Z,97400.49
2019-06-01T06:01:23.884Z,97401.29
2019-06-01T06:03:52.202Z,97397.94
2019-06-01T06:06:20.530Z,97398.28
2019-06-01T06:08:48.849Z,97400.69
2019-06-01T06:11:17.146Z,97401.09
2019-06-01T06:13:45.467Z,97403.11
2019-06-01T06:16:13.889Z,97407.31
2019-06-01T06:18:42.154Z,97405.27
2019-06-01T06:21:10.494Z,97409.53
2019-06-01T06:23:38.839Z,97339.01
2019-06-01T06:26:07.173Z,97409.22
2019-06-01T06:28:35.538Z,97416.82
2019-06-01T06:31:03.913Z,97408.23
2019-06-01T06:33:32.208Z,97408.14
2019-06-01T06:36:00.648Z,97410.11
2019-06-01T06:38:28.981Z,97410.56
2019-06-01T06:40:57.348Z,97411.20
2019-06-01T06:43:32.654Z,97410.09
2019-06-01T06:45:55.687Z,97404.07
2019-06-01T06:48:25.200Z,97403.23
2019-06-01T06:50:53.597Z,97407.39
2019-06-01T06:53:29.823Z,97409.40
2019-06-01T06:55:52.016Z,97408.27
2019-06-01T06:58:21.011Z,97411.16
2019-06-01T07:00:49.716Z,97407.08
2019-06-01T07:03:18.925Z,97413.06
2019-06-01T07:05:47.395Z,97415.42
2019-06-01T07:08:17.595Z,97412.09
2019-06-01T07:10:46.038Z,97413.41
2019-06-01T07:13:14.509Z,97417.52
2019-06-01T07:15:42.873Z,97413.41
2019-06-01T07:18:11.247Z,97418.71
2019-06-01T07:20:39.575Z,97414.32
2019-06-01T07:23:07.857Z,97408.66
2019-06-01T07:25:36.223Z,97411.58
2019-06-01T07:28:04.978Z,97414.29
2019-06-01T07:30:49.476Z,97412.34
2019-06-01T07:33:04.588Z,97403.38
2019-06-01T07:35:32.899Z,97409.10
2019-06-01T07:38:01.317Z,97408.38
2019-06-01T07:40:29.680Z,97411.95
2019-06-01T07:42:57.974Z,97411.31
2019-06-01T07:45:26.956Z,97403.73
2019-06-01T07:47:55.354Z,97408.33
2019-06-01T07:50:23.984Z,97403.12
2019-06-01T07:52:52.330Z,97403.27
2019-06-01T07:55:21.409Z,97410.59
2019-06-01T07:57:49.926Z,97403.23
2019-06-01T08:00:18.351Z,97398.96
2019-06-01T08:02:46.828Z,97403.69
2019-06-01T08:05:15.195Z,97408.73
2019-06-01T08:07:43.478Z,97404.44
2019-06-01T08:10:12.079Z,97401.82
2019-06-01T08:12:40.405Z,97398.59
2019-06-01T08:15:08.893Z,97400.85
2019-06-01T08:17:37.276Z,97394.56
2019-06-01T08:20:08.722Z,97388.30
2019-06-01T08:22:37.017Z,97380.45
2019-06-01T08:25:06.934Z,97366.34
2019-06-01T08:27:35.225Z,97384.70
2019-06-01T08:30:05.598Z,97389.03
2019-06-01T08:32:34.005Z,97384.70
2019-06-01T08:35:08.651Z,97383.50
2019-06-01T08:37:33.581Z,97374.55
2019-06-01T08:40:02.055Z,97374.55
2019-06-01T08:42:31.545Z,97389.63
2019-06-01T08:45:00.015Z,97378.33
2019-06-01T08:47:28.324Z,97380.72
2019-06-01T08:49:56.655Z,97378.15
2019-06-01T08:52:25.976Z,97371.83
2019-06-01T08:54:54.343Z,97372.92
2019-06-01T08:57:24.100Z,97377.30
2019-06-01T08:59:52.445Z,97371.31
2019-06-01T09:02:20.752Z,97370.08
2019-06-01T09:04:49.052Z,97367.14
2019-06-01T09:07:17.513Z,97364.37
2019-06-01T09:09:45.879Z,97366.14
2019-06-01T09:12:14.325Z,97360.54
2019-06-01T09:14:42.608Z,97354.06
2019-06-01T09:17:11.102Z,97358.20
2019-06-01T09:19:39.392Z,97363.85
2019-06-01T09:24:36.196Z,97351.92
2019-06-01T09:27:04.892Z,97353.27
2019-06-01T09:29:34.075Z,97350.52
2019-06-01T09:32:02.522Z,97348.48
2019-06-01T09:34:30.796Z,97349.27
2019-06-01T09:36:59.095Z,97341.15
2019-06-01T09:39:28.994Z,97351.86
2019-06-01T09:41:57.418Z,97348.51
2019-06-01T09:44:26.861Z,97351.59
2019-06-01T09:46:55.228Z,97351.71
2019-06-01T09:49:23.584Z,97351.09
2019-06-01T09:51:51.893Z,97343.97
2019-06-01T09:54:20.237Z,97347.95
2019-06-01T09:56:48.547Z,97351.84
2019-06-01T09:59:16.864Z,97343.39
2019-06-01T10:01:45.214Z,97339.77
2019-06-01T10:04:13.579Z,97344.52
2019-06-01T10:06:41.899Z,97340.31
2019-06-01T10:09:10.259Z,97333.66
2019-06-01T10:11:38.664Z,97330.84
2019-06-01T10:14:07.092Z,97326.34
2019-06-01T10:16:36.781Z,97328.25
2019-06-01T10:19:05.276Z,97319.08
2019-06-01T10:21:33.964Z,97327.09
2019-06-01T10:24:02.388Z,97321.06
2019-06-01T10:26:31.339Z,97321.39
2019-06-01T10:28:59.797Z,97321.14
2019-06-01T10:31:28.112Z,97321.30
2019-06-01T10:33:56.497Z,97318.88
2019-06-01T10:36:24.796Z,97315.50
2019-06-01T10:38:53.175Z,97311.63
2019-06-01T10:41:21.477Z,97302.42
2019-06-01T10:43:49.764Z,97304.30
2019-06-01T10:46:18.077Z,97308.52
2019-06-01T10:48:46.380Z,97310.20
2019-06-01T10:51:14.706Z,97306.21
2019-06-01T10:53:43.834Z,97293.09
2019-06-01T10:56:12.277Z,97293.09
2019-06-01T10:58:57.637Z,97295.37
2019-06-01T11:01:10.559Z,97291.78
2019-06-01T11:03:38.859Z,97293.70
2019-06-01T11:06:07.221Z,97287.87
2019-06-01T11:08:37.024Z,97283.56
2019-06-01T11:11:05.516Z,97290.46
2019-06-01T11:13:35.020Z,97280.02
2019-06-01T11:16:03.455Z,97278.26
2019-06-01T11:18:33.128Z,97278.97
2019-06-01T11:21:01.591Z,97275.34
2019-06-01T11:23:29.915Z,97271.46
2019-06-01T11:25:58.233Z,97273.98
2019-06-01T11:28:26.516Z,97260.38
2019-06-01T11:30:54.822Z,97261.92
2019-06-01T11:33:23.207Z,97270.03
2019-06-01T11:35:51.622Z,97258.41
2019-06-01T11:38:19.930Z,97260.39
2019-06-01T11:40:48.227Z,97252.95
2019-06-01T11:43:16.532Z,97252.91
2019-06-01T11:45:45.249Z,97254.97
2019-06-01T11:48:13.689Z,97246.14
2019-06-01T11:50:43.120Z,97241.78
2019-06-01T11:53:11.473Z,97236.55
2019-06-01T11:55:39.783Z,97233.31
2019-06-01T11:58:08.253Z,97221.95
2019-06-01T12:00:37.522Z,97228.17
2019-06-01T12:05:26.423Z,97211.06
2019-06-01T12:07:54.702Z,97219.46
2019-06-01T12:10:22.996Z,97218.77
2019-06-01T12:12:51.462Z,97211.77
2019-06-01T12:15:20.313Z,97223.74
2019-06-01T12:17:48.639Z,97220.52
2019-06-01T12:20:17.264Z,97216.64
2019-06-01T12:22:45.555Z,97216.26
2019-06-01T12:25:14.098Z,97207.31
2019-06-01T12:27:44.052Z,97205.36
2019-06-01T12:30:12.502Z,97206.47
2019-06-01T12:32:41.918Z,97205.39
2019-06-01T12:35:10.986Z,97200.20
2019-06-01T12:37:58.328Z,97203.84
2019-06-01T12:40:09.840Z,97191.52
2019-06-01T12:42:39.606Z,97192.12
2019-06-01T12:45:08.858Z,97180.64
2019-06-01T12:47:37.182Z,97180.33
2019-06-01T12:50:07.246Z,97177.09
2019-06-01T12:52:35.612Z,97166.53
2019-06-01T12:55:04.919Z,97167.92
2019-06-01T12:57:33.201Z,97164.00
2019-06-01T13:00:01.589Z,97165.78
2019-06-01T13:02:29.925Z,97159.91
2019-06-01T13:04:58.247Z,97161.20
2019-06-01T13:07:26.591Z,97158.28
2019-06-01T13:09:54.883Z,97157.68
2019-06-01T13:12:23.272Z,97148.30
2019-06-01T13:14:52.239Z,97142.81
2019-06-01T13:17:20.902Z,97144.74
2019-06-01T13:19:49.624Z,97146.45
2019-06-01T13:22:18.020Z,97134.86
2019-06-01T13:24:47.755Z,97134.98
2019-06-01T13:27:16.166Z,97132.77
2019-06-01T13:29:45.715Z,97131.08
2019-06-01T13:32:14.321Z,97130.39
2019-06-01T13:34:42.762Z,97128.92
2019-06-01T13:37:11.153Z,97123.09
2019-06-01T13:39:39.435Z,97115.56
2019-06-01T13:42:07.837Z,97120.55
2019-06-01T13:44:36.126Z,97119.30
2019-06-01T13:47:04.517Z,97117.43
2019-06-01T13:49:32.898Z,97117.16
2019-06-01T13:52:01.213Z,97109.34
2019-06-01T13:54:29.523Z,97106.17
2019-06-01T13:56:57.918Z,97103.52
2019-06-01T13:59:26.287Z,97108.14
2019-06-01T14:01:55.394Z,97099.02
2019-06-01T14:04:23.749Z,97097.42
2019-06-01T14:06:53.133Z,97098.32
2019-06-01T14:09:22.143Z,97087.03
2019-06-01T14:11:51.435Z,97081.81
2019-06-01T14:14:19.820Z,97087.17
2019-06-01T14:16:49.418Z,97084.30
2019-06-01T14:19:17.919Z,97079.66
2019-06-01T14:21:47.631Z,97074.98
2019-06-01T14:24:16.214Z,97073.36
2019-06-01T14:26:45.945Z,97074.98
2019-06-01T14:29:14.375Z,97070.58
2019-06-01T14:31:44.356Z,97070.23
2019-06-01T14:34:12.640Z,97065.06
2019-06-01T14:36:41.123Z,97066.97
2019-06-01T14:39:09.490Z,97069.74
2019-06-01T14:41:37.818Z,97067.14
2019-06-01T14:44:06.278Z,97064.21
2019-06-01T14:46:34.657Z,97070.48
2019-06-01T14:49:02.986Z,97068.32
2019-06-01T14:51:31.282Z,97061.65
2019-06-01T14:53:59.614Z,97064.38
2019-06-01T14:56:27.916Z,97067.25
2019-06-01T14:58:56.230Z,97064.93
2019-06-01T15:01:32.344Z,97058.89
2019-06-01T15:03:54.782Z,97058.14
2019-06-01T15:06:23.186Z,97047.81
2019-06-01T15:09:13.082Z,97056.88
2019-06-01T15:11:21.636Z,97056.58
2019-06-01T15:13:50.325Z,97052.51
2019-06-01T15:16:18.736Z,97052.45
2019-06-01T15:18:47.124Z,97048.81
2019-06-01T15:21:15.495Z,97056.73
2019-06-01T15:23:43.843Z,97049.71
2019-06-01T15:26:12.220Z,97053.42
2019-06-01T15:28:40.668Z,97051.33
2019-06-01T15:31:09.015Z,97046.45
2019-06-01T15:33:37.304Z,97042.65
2019-06-01T15:36:05.689Z,97042.41
2019-06-01T15:38:33.981Z,97039.14
2019-06-01T15:41:02.440Z,97034.02
2019-06-01T15:43:30.798Z,97030.48
2019-06-01T15:45:59.829Z,97035.20
2019-06-01T15:48:28.253Z,97035.23
2019-06-01T15:51:02.479Z,97033.47
2019-06-01T15:53:26.651Z,97033.91
2019-06-01T15:55:55.091Z,97034.23
2019-06-01T15:58:23.502Z,97033.80
2019-06-01T16:00:52.746Z,97032.30
2019-06-01T16:03:21.259Z,97027.30
2019-06-01T16:05:49.547Z,97025.95
2019-06-01T16:08:18.042Z,97033.80
2019-06-01T16:10:46.429Z,97026.80
2019-06-01T16:13:14.742Z,97025.67
2019-06-01T16:15:43.126Z,97023.35
2019-06-01T16:18:11.476Z,97022.73
2019-06-01T16:20:39.880Z,97020.69
2019-06-01T16:23:08.187Z,97021.08
2019-06-01T16:25:36.497Z,97020.50
2019-06-01T16:28:05.725Z,97030.80
2019-06-01T16:30:34.229Z,97022.92
2019-06-01T16:33:02.943Z,97024.42
2019-06-01T16:35:31.358Z,97018.77
2019-06-01T16:38:02.306Z,97019.63
2019-06-01T16:40:29.848Z,97014.30
2019-06-01T16:42:59.355Z,97016.78
2019-06-01T16:45:27.822Z,97019.52
2019-06-01T16:47:57.332Z,97011.03
2019-06-01T16:50:25.803Z,97008.14
2019-06-01T16:52:54.191Z,97004.64
2019-06-01T16:55:22.588Z,97008.03
2019-06-01T16:57:50.978Z,97007.94
2019-06-01T17:00:19.768Z,97006.02
2019-06-01T17:02:48.078Z,97004.53
2019-06-01T17:05:16.486Z,97007.69
2019-06-01T17:07:44.807Z,97005.64
2019-06-01T17:10:25.823Z,97010.05
2019-06-01T17:12:44.595Z,97004.78
2019-06-01T17:15:13.059Z,97004.20
2019-06-01T17:17:41.529Z,96999.77
2019-06-01T17:20:32.653Z,97006.36
2019-06-01T17:23:02.927Z,97007.98
2019-06-01T17:25:31.025Z,97007.00
2019-06-01T17:28:00.152Z,97001.82
2019-06-01T17:30:28.611Z,97004.65
2019-06-01T17:32:58.120Z,97007.88
2019-06-01T17:35:26.619Z,97000.71
2019-06-01T17:37:54.944Z,96995.83
2019-06-01T17:40:36.571Z,96999.59
2019-06-01T17:42:53.499Z,96995.98
2019-06-01T17:45:21.834Z,96954.75
2019-06-01T17:47:50.161Z,97004.76
2019-06-01T17:50:20.272Z,97002.91
2019-06-01T17:52:48.698Z,97003.08
2019-06-01T17:55:35.375Z,97002.69
2019-06-01T17:58:05.451Z,97005.80
2019-06-01T18:00:34.034Z,97004.36
2019-06-01T18:03:03.486Z,97006.55
2019-06-01T18:05:32.146Z,97006.05
2019-06-01T18:08:01.759Z,97012.23
2019-06-01T18:10:30.163Z,97002.14
2019-06-01T18:12:58.560Z,96999.00
2019-06-01T18:15:27.249Z,97001.28
2019-06-01T18:17:55.634Z,97003.53
2019-06-01T18:20:23.956Z,97002.05
2019-06-01T18:22:52.322Z,97003.48
2019-06-01T18:25:23.211Z,97004.75
2019-06-01T18:27:51.628Z,97004.42
2019-06-01T18:30:20.237Z,97000.73
2019-06-01T18:32:48.785Z,96997.20
2019-06-01T18:35:19.676Z,97001.23
2019-06-01T18:37:47.295Z,96996.80
2019-06-01T18:40:17.063Z,96995.93
2019-06-01T18:42:47.123Z,96995.67
2019-06-01T18:45:16.363Z,96996.75
2019-06-01T18:47:44.954Z,97000.52
2019-06-01T18:50:16.162Z,97005.39
2019-06-01T18:52:43.901Z,97004.03
2019-06-01T18:55:12.716Z,97002.08
2019-06-01T18:57:42.208Z,96999.66
2019-06-01T19:00:13.845Z,97002.00
2019-06-01T19:02:42.284Z,97005.78
2019-06-01T19:05:11.148Z,97002.77
2019-06-01T19:07:39.430Z,97005.45
2019-06-01T19:10:09.475Z,97011.33
2019-06-01T19:12:37.897Z,97016.04
2019-06-01T19:15:23.217Z,97012.64
2019-06-01T19:17:39.541Z,97015.89
2019-06-01T19:20:08.697Z,97016.17
2019-06-01T19:22:37.144Z,97008.70
2019-06-01T19:25:06.676Z,97012.94
2019-06-01T19:27:35.249Z,97019.98
2019-06-01T19:30:04.809Z,97030.37
2019-06-01T19:32:33.211Z,97037.13
2019-06-01T19:35:01.681Z,97035.87
2019-06-01T19:37:30.055Z,97040.80
2019-06-01T19:39:58.739Z,97036.28
2019-06-01T19:42:27.142Z,97035.16
2019-06-01T19:44:55.449Z,97030.02
2019-06-01T19:47:23.918Z,97038.66
2019-06-01T19:49:52.234Z,97035.69
2019-06-01T19:52:20.636Z,97051.49
2019-06-01T19:54:49.115Z,97050.30
2019-06-01T19:57:21.416Z,97050.30
2019-06-01T19:59:47.648Z,97060.73
2019-06-01T20:02:29.308Z,97057.22
2019-06-01T20:04:46.230Z,97060.59
2019-06-01T20:07:15.136Z,97063.09
2019-06-01T20:09:43.525Z,97067.67
2019-06-01T20:12:16.352Z,97062.39
2019-06-01T20:14:41.950Z,97065.38
2019-06-01T20:17:11.737Z,97064.36
2019-06-01T20:19:40.077Z,97067.64
2019-06-01T20:22:08.540Z,97060.93
2019-06-01T20:24:36.832Z,97060.98
2019-06-01T20:27:05.221Z,97071.65
2019-06-01T20:29:33.612Z,97069.89
2019-06-01T20:32:01.955Z,97072.25
2019-06-01T20:34:30.492Z,97069.48
2019-06-01T20:36:58.803Z,97078.97
2019-06-01T20:39:27.237Z,97080.61
2019-06-01T20:41:55.537Z,97083.05
2019-06-01T20:44:23.931Z,97077.88
2019-06-01T20:46:52.275Z,97085.64
2019-06-01T20:49:20.758Z,97089.34
2019-06-01T20:51:49.112Z,97088.00
2019-06-01T20:54:17.437Z,97083.41
2019-06-01T20:56:45.752Z,97086.96
2019-06-01T20:59:17.190Z,97089.11
2019-06-01T21:01:44.238Z,97088.53
2019-06-01T21:04:14.069Z,97092.01
2019-06-01T21:06:42.460Z,97091.55
2019-06-01T21:09:10.858Z,97092.40
2019-06-01T21:11:39.226Z,97091.37
2019-06-01T21:14:07.628Z,97090.22
2019-06-01T21:16:35.999Z,97082.94
2019-06-01T21:19:04.552Z,97086.64
2019-06-01T21:21:32.903Z,97082.17
2019-06-01T21:24:01.215Z,97086.92
2019-06-01T21:26:32.593Z,97089.37
2019-06-01T21:29:00.977Z,97087.69
2019-06-01T21:31:29.347Z,97086.92
2019-06-01T21:33:57.737Z,97089.39
2019-06-01T21:36:26.084Z,97090.73
2019-06-01T21:38:54.383Z,97094.14
2019-06-01T21:41:23.728Z,97096.05
2019-06-01T21:43:52.272Z,97094.33
2019-06-01T21:46:21.705Z,97089.39
2019-06-01T21:48:50.034Z,97087.78
2019-06-01T21:51:18.369Z,97086.17
2019-06-01T21:53:46.736Z,97090.61
2019-06-01T21:56:18.322Z,97082.70
2019-06-01T21:58:45.204Z,97088.77
2019-06-01T22:01:13.751Z,97084.59
2019-06-01T22:03:42.086Z,97088.81
2019-06-01T22:06:10.404Z,97089.28
2019-06-01T22:08:38.714Z,97088.47
2019-06-01T22:11:07.015Z,97091.17
2019-06-01T22:13:35.324Z,97088.13
2019-06-01T22:16:03.737Z,97084.89
2019-06-01T22:18:32.101Z,97092.83
2019-06-01T22:21:00.430Z,97085.11
2019-06-01T22:23:28.768Z,97082.84
2019-06-01T22:25:57.106Z,97079.02
2019-06-01T22:28:26.337Z,97079.36
2019-06-01T22:30:54.770Z,97077.45
2019-06-01T22:33:23.197Z,97070.33
2019-06-01T22:35:52.473Z,97073.28
2019-06-01T22:38:21.636Z,97078.00
2019-06-01T22:40:50.083Z,97079.19
2019-06-01T22:43:35.152Z,97080.84
2019-06-01T22:45:48.669Z,97079.16
2019-06-01T22:48:16.987Z,97082.17
2019-06-01T22:50:45.308Z,97084.19
2019-06-01T22:53:13.601Z,97086.31
2019-06-01T22:55:41.992Z,97085.89
2019-06-01T22:58:10.390Z,97083.02
2019-06-01T23:00:38.709Z,97083.36
2019-06-01T23:03:07.192Z,97076.87
2019-06-01T23:05:35.495Z,97077.25
2019-06-01T23:08:03.883Z,97013.09
2019-06-01T23:10:35.444Z,97068.55
2019-06-01T23:13:02.221Z,97065.04
2019-06-01T23:15:31.907Z,97065.59
2019-06-01T23:18:00.263Z,97068.23
2019-06-01T23:20:29.914Z,97063.86
2019-06-01T23:22:58.458Z,97066.03
2019-06-01T23:25:26.817Z,97060.91
2019-06-01T23:27:55.132Z,97061.22
2019-06-01T23:30:24.287Z,97065.19
2019-06-01T23:32:52.591Z,97062.61
2019-06-01T23:35:20.921Z,97057.56
2019-06-01T23:37:50.380Z,97056.72
2019-06-01T23:40:18.915Z,97053.16
2019-06-01T23:42:47.299Z,97052.37
2019-06-01T23:45:17.040Z,97044.58
2019-06-01T23:47:45.460Z,97044.28
2019-06-01T23:50:13.844Z,97049.27
2019-06-01T23:52:42.150Z,97047.63
2019-06-01T23:55:10.583Z,97048.72
2019-06-01T23:57:38.905Z,97049.93
